Terminal Aerodrome Forecast
Issued by NWS Albany, NY

Home | Current Version | Previous Version | Text Only | Print | Product List | Glossary On
Versions: 1 2 3 4 5 6 7 8 9 10 11 12 13 14 15 16 17 18 19 20 21 22 23 24 25 26 27 28 29 30 31 32 33
000
FTUS41 KALY 280538
TAFPOU
TAF
KPOU 280538Z 2806/2906 15003KT P6SM SCT015 BKN200
     FM280800 15003KT P6SM SCT009 OVC015
      TEMPO 2809/2812 4SM BR BKN009 OVC015
     FM281400 16006KT P6SM OVC015 PROB30 2818/2824 5SM -SHRA BR
      OVC009
     FM290000 15006KT 5SM BR VCSH OVC009=

USA.gov is the U.S. government's official web portal to all federal, state and local government web resources and services.